sensor_id;sensor_type;location;lat;lon;timestamp;temperature;humidity
8313;DHT22;4194;43.408;24.626;2023-12-04T00:01:09;0.60;99.90
8313;DHT22;4194;43.408;24.626;2023-12-04T00:03:35;1.10;99.90
8313;DHT22;4194;43.408;24.626;2023-12-04T00:06:01;1.60;99.90
8313;DHT22;4194;43.408;24.626;2023-12-04T00:08:26;0.90;99.90
8313;DHT22;4194;43.408;24.626;2023-12-04T00:10:52;0.80;99.90
8313;DHT22;4194;43.408;24.626;2023-12-04T00:13:19;0.40;99.90
8313;DHT22;4194;43.408;24.626;2023-12-04T00:15:45;0.70;99.90
8313;DHT22;4194;43.408;24.626;2023-12-04T00:18:11;1.20;99.90
8313;DHT22;4194;43.408;24.626;2023-12-04T00:20:37;1.80;99.90
8313;DHT22;4194;43.408;24.626;2023-12-04T00:23:03;1.00;99.90
8313;DHT22;4194;43.408;24.626;2023-12-04T00:25:28;0.80;99.90
8313;DHT22;4194;43.408;24.626;2023-12-04T00:27:54;0.40;99.90
8313;DHT22;4194;43.408;24.626;2023-12-04T00:30:19;1.00;99.90
8313;DHT22;4194;43.408;24.626;2023-12-04T00:32:45;1.60;99.90
8313;DHT22;4194;43.408;24.626;2023-12-04T00:35:11;0.50;99.90
8313;DHT22;4194;43.408;24.626;2023-12-04T00:37:36;1.20;99.90
8313;DHT22;4194;43.408;24.626;2023-12-04T00:40:05;0.40;99.90
8313;DHT22;4194;43.408;24.626;2023-12-04T00:42:31;1.10;99.90
8313;DHT22;4194;43.408;24.626;2023-12-04T00:44:57;1.90;99.90
8313;DHT22;4194;43.408;24.626;2023-12-04T00:47:22;0.80;99.90
8313;DHT22;4194;43.408;24.626;2023-12-04T00:49:48;0.40;99.90
8313;DHT22;4194;43.408;24.626;2023-12-04T00:52:13;1.70;99.90
8313;DHT22;4194;43.408;24.626;2023-12-04T00:54:40;1.30;99.90
8313;DHT22;4194;43.408;24.626;2023-12-04T00:57:08;0.70;99.90
8313;DHT22;4194;43.408;24.626;2023-12-04T00:59:34;1.80;99.90
8313;DHT22;4194;43.408;24.626;2023-12-04T01:02:00;2.00;99.90
8313;DHT22;4194;43.408;24.626;2023-12-04T01:04:26;1.30;99.90
8313;DHT22;4194;43.408;24.626;2023-12-04T01:06:52;1.40;99.90
8313;DHT22;4194;43.408;24.626;2023-12-04T01:09:18;1.70;99.90
8313;DHT22;4194;43.408;24.626;2023-12-04T01:11:43;1.40;99.90
8313;DHT22;4194;43.408;24.626;2023-12-04T01:14:09;0.90;99.90
8313;DHT22;4194;43.408;24.626;2023-12-04T01:16:35;1.40;99.90
8313;DHT22;4194;43.408;24.626;2023-12-04T01:19:01;1.20;99.90
8313;DHT22;4194;43.408;24.626;2023-12-04T01:21:26;2.00;99.90
8313;DHT22;4194;43.408;24.626;2023-12-04T01:23:52;1.50;99.90
8313;DHT22;4194;43.408;24.626;2023-12-04T01:26:17;1.90;99.90
8313;DHT22;4194;43.408;24.626;2023-12-04T01:28:43;1.30;99.90
8313;DHT22;4194;43.408;24.626;2023-12-04T01:31:09;-0.20;99.90
8313;DHT22;4194;43.408;24.626;2023-12-04T01:33:34;1.40;99.90
8313;DHT22;4194;43.408;24.626;2023-12-04T01:36:01;1.40;99.90
8313;DHT22;4194;43.408;24.626;2023-12-04T01:38:27;2.00;99.90
8313;DHT22;4194;43.408;24.626;2023-12-04T01:40:53;1.40;99.90
8313;DHT22;4194;43.408;24.626;2023-12-04T01:43:18;1.50;99.90
8313;DHT22;4194;43.408;24.626;2023-12-04T01:45:44;0.80;99.90
8313;DHT22;4194;43.408;24.626;2023-12-04T01:48:11;1.30;99.90
8313;DHT22;4194;43.408;24.626;2023-12-04T01:50:39;1.30;99.90
8313;DHT22;4194;43.408;24.626;2023-12-04T01:53:05;1.30;99.90
8313;DHT22;4194;43.408;24.626;2023-12-04T01:55:33;1.90;99.90
8313;DHT22;4194;43.408;24.626;2023-12-04T01:58:00;1.80;99.90
8313;DHT22;4194;43.408;24.626;2023-12-04T02:00:29;1.20;99.90
8313;DHT22;4194;43.408;24.626;2023-12-04T02:02:56;2.00;99.90
8313;DHT22;4194;43.408;24.626;2023-12-04T02:05:22;1.80;99.90
8313;DHT22;4194;43.408;24.626;2023-12-04T02:07:48;1.20;99.90
8313;DHT22;4194;43.408;24.626;2023-12-04T02:10:14;1.80;99.90
8313;DHT22;4194;43.408;24.626;2023-12-04T02:12:40;1.70;99.90
8313;DHT22;4194;43.408;24.626;2023-12-04T02:15:06;0.60;99.90
8313;DHT22;4194;43.408;24.626;2023-12-04T02:17:32;1.20;99.90
8313;DHT22;4194;43.408;24.626;2023-12-04T02:19:59;2.00;99.90
8313;DHT22;4194;43.408;24.626;2023-12-04T02:22:24;1.40;99.90
8313;DHT22;4194;43.408;24.626;2023-12-04T02:24:50;1.00;99.90
8313;DHT22;4194;43.408;24.626;2023-12-04T02:27:22;2.00;99.90
8313;DHT22;4194;43.408;24.626;2023-12-04T02:29:56;0.70;99.90
8313;DHT22;4194;43.408;24.626;2023-12-04T02:32:23;0.60;99.90
8313;DHT22;4194;43.408;24.626;2023-12-04T02:34:50;1.10;99.90
8313;DHT22;4194;43.408;24.626;2023-12-04T02:37:19;1.30;99.90
8313;DHT22;4194;43.408;24.626;2023-12-04T02:39:45;1.10;99.90
8313;DHT22;4194;43.408;24.626;2023-12-04T02:42:11;0.70;99.90
8313;DHT22;4194;43.408;24.626;2023-12-04T02:44:39;1.20;99.90
8313;DHT22;4194;43.408;24.626;2023-12-04T02:47:05;1.00;99.90
8313;DHT22;4194;43.408;24.626;2023-12-04T02:49:30;1.10;99.90
8313;DHT22;4194;43.408;24.626;2023-12-04T02:51:56;1.20;99.90
8313;DHT22;4194;43.408;24.626;2023-12-04T02:54:22;1.50;99.90
8313;DHT22;4194;43.408;24.626;2023-12-04T02:56:49;1.50;99.90
8313;DHT22;4194;43.408;24.626;2023-12-04T02:59:15;1.00;99.90
8313;DHT22;4194;43.408;24.626;2023-12-04T03:01:41;0.60;99.90
8313;DHT22;4194;43.408;24.626;2023-12-04T03:04:06;0.50;99.90
8313;DHT22;4194;43.408;24.626;2023-12-04T03:06:32;0.60;99.90
8313;DHT22;4194;43.408;24.626;2023-12-04T03:08:58;0.60;99.90
8313;DHT22;4194;43.408;24.626;2023-12-04T03:11:25;0.40;99.90
8313;DHT22;4194;43.408;24.626;2023-12-04T03:13:50;0.90;99.90
8313;DHT22;4194;43.408;24.626;2023-12-04T03:16:17;0.40;99.90
8313;DHT22;4194;43.408;24.626;2023-12-04T03:18:43;-0.20;99.90
8313;DHT22;4194;43.408;24.626;2023-12-04T03:21:09;0.20;99.90
8313;DHT22;4194;43.408;24.626;2023-12-04T03:23:35;0.90;99.90
8313;DHT22;4194;43.408;24.626;2023-12-04T03:26:01;1.00;99.90
8313;DHT22;4194;43.408;24.626;2023-12-04T03:28:27;0.20;99.90
8313;DHT22;4194;43.408;24.626;2023-12-04T03:30:52;0.20;99.90
8313;DHT22;4194;43.408;24.626;2023-12-04T03:33:18;0.30;99.90
8313;DHT22;4194;43.408;24.626;2023-12-04T03:35:44;0.10;99.90
8313;DHT22;4194;43.408;24.626;2023-12-04T03:38:09;1.40;99.90
8313;DHT22;4194;43.408;24.626;2023-12-04T03:40:35;0.60;99.90
8313;DHT22;4194;43.408;24.626;2023-12-04T03:43:01;0.10;99.90
8313;DHT22;4194;43.408;24.626;2023-12-04T03:45:26;0.80;99.90
8313;DHT22;4194;43.408;24.626;2023-12-04T03:47:52;0.90;99.90
8313;DHT22;4194;43.408;24.626;2023-12-04T03:50:19;0.10;99.90
8313;DHT22;4194;43.408;24.626;2023-12-04T03:52:45;0.00;99.90
8313;DHT22;4194;43.408;24.626;2023-12-04T03:55:10;0.00;99.90
8313;DHT22;4194;43.408;24.626;2023-12-04T03:57:36;0.00;99.90
8313;DHT22;4194;43.408;24.626;2023-12-04T04:00:02;1.40;99.90
8313;DHT22;4194;43.408;24.626;2023-12-04T04:02:28;0.60;99.90
8313;DHT22;4194;43.408;24.626;2023-12-04T04:04:54;0.00;99.90
8313;DHT22;4194;43.408;24.626;2023-12-04T04:07:20;0.80;99.90
8313;DHT22;4194;43.408;24.626;2023-12-04T04:09:46;-0.50;99.90
8313;DHT22;4194;43.408;24.626;2023-12-04T04:12:12;0.00;99.90
8313;DHT22;4194;43.408;24.626;2023-12-04T04:14:37;-0.40;99.90
8313;DHT22;4194;43.408;24.626;2023-12-04T04:17:03;-0.40;99.90
8313;DHT22;4194;43.408;24.626;2023-12-04T04:19:29;0.50;99.90
8313;DHT22;4194;43.408;24.626;2023-12-04T04:21:55;1.00;99.90
8313;DHT22;4194;43.408;24.626;2023-12-04T04:24:21;0.00;99.90
8313;DHT22;4194;43.408;24.626;2023-12-04T04:26:46;-0.10;99.90
8313;DHT22;4194;43.408;24.626;2023-12-04T04:29:12;-0.40;99.90
8313;DHT22;4194;43.408;24.626;2023-12-04T04:31:38;0.10;99.90
8313;DHT22;4194;43.408;24.626;2023-12-04T04:34:04;-0.10;99.90
8313;DHT22;4194;43.408;24.626;2023-12-04T04:36:29;0.90;99.90
8313;DHT22;4194;43.408;24.626;2023-12-04T04:38:55;1.00;99.90
8313;DHT22;4194;43.408;24.626;2023-12-04T04:41:20;-0.10;99.90
8313;DHT22;4194;43.408;24.626;2023-12-04T04:43:46;-0.60;99.90
8313;DHT22;4194;43.408;24.626;2023-12-04T04:46:12;0.00;99.90
8313;DHT22;4194;43.408;24.626;2023-12-04T04:48:38;-0.40;99.90
8313;DHT22;4194;43.408;24.626;2023-12-04T04:51:05;0.70;99.90
8313;DHT22;4194;43.408;24.626;2023-12-04T04:53:31;0.00;99.90
8313;DHT22;4194;43.408;24.626;2023-12-04T04:55:56;0.60;99.90
8313;DHT22;4194;43.408;24.626;2023-12-04T04:58:22;0.00;99.90
8313;DHT22;4194;43.408;24.626;2023-12-04T05:00:47;0.80;99.90
8313;DHT22;4194;43.408;24.626;2023-12-04T05:03:13;-0.60;99.90
8313;DHT22;4194;43.408;24.626;2023-12-04T05:05:39;0.20;99.90
8313;DHT22;4194;43.408;24.626;2023-12-04T05:08:05;0.00;99.90
8313;DHT22;4194;43.408;24.626;2023-12-04T05:10:30;0.00;99.90
8313;DHT22;4194;43.408;24.626;2023-12-04T05:12:56;0.00;99.80
8313;DHT22;4194;43.408;24.626;2023-12-04T05:15:22;0.00;99.80
8313;DHT22;4194;43.408;24.626;2023-12-04T05:17:47;0.00;99.60
8313;DHT22;4194;43.408;24.626;2023-12-04T05:20:13;0.00;99.90
8313;DHT22;4194;43.408;24.626;2023-12-04T05:22:40;0.00;99.50
8313;DHT22;4194;43.408;24.626;2023-12-04T05:25:06;-0.10;99.30
8313;DHT22;4194;43.408;24.626;2023-12-04T05:27:32;0.00;99.80
8313;DHT22;4194;43.408;24.626;2023-12-04T05:29:57;0.00;99.30
8313;DHT22;4194;43.408;24.626;2023-12-04T05:32:23;-0.10;99.90
8313;DHT22;4194;43.408;24.626;2023-12-04T05:34:49;0.80;99.90
8313;DHT22;4194;43.408;24.626;2023-12-04T05:37:14;-0.10;99.40
8313;DHT22;4194;43.408;24.626;2023-12-04T05:39:41;0.50;99.60
8313;DHT22;4194;43.408;24.626;2023-12-04T05:42:07;-0.20;99.50
8313;DHT22;4194;43.408;24.626;2023-12-04T05:44:33;-0.10;98.80
8313;DHT22;4194;43.408;24.626;2023-12-04T05:47:00;-0.10;98.70
8313;DHT22;4194;43.408;24.626;2023-12-04T05:49:25;0.80;99.20
8313;DHT22;4194;43.408;24.626;2023-12-04T05:51:51;1.00;99.00
8313;DHT22;4194;43.408;24.626;2023-12-04T05:54:17;-0.10;98.90
8313;DHT22;4194;43.408;24.626;2023-12-04T05:56:43;-0.10;99.20
8313;DHT22;4194;43.408;24.626;2023-12-04T05:59:09;-0.50;99.60
8313;DHT22;4194;43.408;24.626;2023-12-04T06:01:34;0.70;99.70
8313;DHT22;4194;43.408;24.626;2023-12-04T06:04:00;-0.10;99.10
8313;DHT22;4194;43.408;24.626;2023-12-04T06:06:26;-0.20;99.70
8313;DHT22;4194;43.408;24.626;2023-12-04T06:08:52;1.00;99.40
8313;DHT22;4194;43.408;24.626;2023-12-04T06:11:18;-0.20;98.50
8313;DHT22;4194;43.408;24.626;2023-12-04T06:13:44;0.60;98.60
8313;DHT22;4194;43.408;24.626;2023-12-04T06:16:09;-0.10;97.70
8313;DHT22;4194;43.408;24.626;2023-12-04T06:18:35;0.60;97.90
8313;DHT22;4194;43.408;24.626;2023-12-04T06:21:01;-0.60;97.30
8313;DHT22;4194;43.408;24.626;2023-12-04T06:23:27;-0.20;96.90
8313;DHT22;4194;43.408;24.626;2023-12-04T06:25:53;0.80;97.40
8313;DHT22;4194;43.408;24.626;2023-12-04T06:28:18;-0.70;96.50
8313;DHT22;4194;43.408;24.626;2023-12-04T06:30:44;0.80;96.90
8313;DHT22;4194;43.408;24.626;2023-12-04T06:33:10;0.90;96.40
8313;DHT22;4194;43.408;24.626;2023-12-04T06:35:38;0.90;96.60
8313;DHT22;4194;43.408;24.626;2023-12-04T06:38:07;-0.10;95.60
8313;DHT22;4194;43.408;24.626;2023-12-04T06:40:34;0.80;95.70
8313;DHT22;4194;43.408;24.626;2023-12-04T06:43:01;-0.30;94.60
8313;DHT22;4194;43.408;24.626;2023-12-04T06:45:27;-0.20;94.70
8313;DHT22;4194;43.408;24.626;2023-12-04T06:47:53;1.10;94.80
8313;DHT22;4194;43.408;24.626;2023-12-04T06:50:19;1.20;94.80
8313;DHT22;4194;43.408;24.626;2023-12-04T06:52:45;0.40;93.90
8313;DHT22;4194;43.408;24.626;2023-12-04T06:55:12;0.90;93.80
8313;DHT22;4194;43.408;24.626;2023-12-04T06:57:38;0.90;93.30
8313;DHT22;4194;43.408;24.626;2023-12-04T07:00:04;0.30;92.90
8313;DHT22;4194;43.408;24.626;2023-12-04T07:02:32;0.70;93.00
8313;DHT22;4194;43.408;24.626;2023-12-04T07:04:57;1.00;92.60
8313;DHT22;4194;43.408;24.626;2023-12-04T07:07:23;0.90;92.00
8313;DHT22;4194;43.408;24.626;2023-12-04T07:09:50;1.40;92.20
8313;DHT22;4194;43.408;24.626;2023-12-04T07:12:16;0.60;91.90
8313;DHT22;4194;43.408;24.626;2023-12-04T07:14:42;0.80;91.80
8313;DHT22;4194;43.408;24.626;2023-12-04T07:17:07;0.50;91.60
8313;DHT22;4194;43.408;24.626;2023-12-04T07:19:33;1.40;92.20
8313;DHT22;4194;43.408;24.626;2023-12-04T07:21:59;0.10;91.10
8313;DHT22;4194;43.408;24.626;2023-12-04T07:24:24;0.80;90.90
8313;DHT22;4194;43.408;24.626;2023-12-04T07:26:52;1.00;91.10
8313;DHT22;4194;43.408;24.626;2023-12-04T07:29:17;0.40;91.00
8313;DHT22;4194;43.408;24.626;2023-12-04T07:31:43;1.10;91.30
8313;DHT22;4194;43.408;24.626;2023-12-04T07:34:09;1.20;91.50
8313;DHT22;4194;43.408;24.626;2023-12-04T07:36:35;1.90;91.10
8313;DHT22;4194;43.408;24.626;2023-12-04T07:39:00;1.40;90.20
8313;DHT22;4194;43.408;24.626;2023-12-04T07:41:26;1.60;90.10
8313;DHT22;4194;43.408;24.626;2023-12-04T07:43:52;1.30;89.20
8313;DHT22;4194;43.408;24.626;2023-12-04T07:46:17;1.90;89.10
8313;DHT22;4194;43.408;24.626;2023-12-04T07:48:43;0.50;88.30
8313;DHT22;4194;43.408;24.626;2023-12-04T07:51:09;1.90;88.70
8313;DHT22;4194;43.408;24.626;2023-12-04T07:53:35;1.30;88.10
8313;DHT22;4194;43.408;24.626;2023-12-04T07:56:04;1.70;86.80
8313;DHT22;4194;43.408;24.626;2023-12-04T07:58:31;2.10;86.50
8313;DHT22;4194;43.408;24.626;2023-12-04T08:00:59;2.40;86.60
8313;DHT22;4194;43.408;24.626;2023-12-04T08:03:25;1.80;85.40
8313;DHT22;4194;43.408;24.626;2023-12-04T08:05:51;1.60;86.10
8313;DHT22;4194;43.408;24.626;2023-12-04T08:08:17;1.80;86.90
8313;DHT22;4194;43.408;24.626;2023-12-04T08:10:43;1.40;86.80
8313;DHT22;4194;43.408;24.626;2023-12-04T08:13:08;1.60;88.10
8313;DHT22;4194;43.408;24.626;2023-12-04T08:15:34;1.60;87.10
8313;DHT22;4194;43.408;24.626;2023-12-04T08:18:00;1.70;86.60
8313;DHT22;4194;43.408;24.626;2023-12-04T08:20:26;1.80;87.10
8313;DHT22;4194;43.408;24.626;2023-12-04T08:22:52;1.60;87.10
8313;DHT22;4194;43.408;24.626;2023-12-04T08:25:17;2.00;88.00
8313;DHT22;4194;43.408;24.626;2023-12-04T08:27:43;1.60;87.60
8313;DHT22;4194;43.408;24.626;2023-12-04T08:30:09;2.20;90.00
8313;DHT22;4194;43.408;24.626;2023-12-04T08:32:35;2.30;89.00
8313;DHT22;4194;43.408;24.626;2023-12-04T08:35:01;1.50;88.50
8313;DHT22;4194;43.408;24.626;2023-12-04T08:37:26;1.60;88.20
8313;DHT22;4194;43.408;24.626;2023-12-04T08:39:52;-0.50;85.50
8313;DHT22;4194;43.408;24.626;2023-12-04T08:42:18;2.30;88.10
8313;DHT22;4194;43.408;24.626;2023-12-04T08:44:44;2.10;87.80
8313;DHT22;4194;43.408;24.626;2023-12-04T08:47:13;2.20;87.60
8313;DHT22;4194;43.408;24.626;2023-12-04T08:49:40;2.10;86.40
8313;DHT22;4194;43.408;24.626;2023-12-04T08:52:06;1.90;85.70
8313;DHT22;4194;43.408;24.626;2023-12-04T08:54:32;2.30;86.80
8313;DHT22;4194;43.408;24.626;2023-12-04T08:56:58;2.30;86.10
8313;DHT22;4194;43.408;24.626;2023-12-04T08:59:24;2.10;85.20
8313;DHT22;4194;43.408;24.626;2023-12-04T09:01:50;2.00;86.40
8313;DHT22;4194;43.408;24.626;2023-12-04T09:04:15;2.10;87.10
8313;DHT22;4194;43.408;24.626;2023-12-04T09:06:41;2.10;87.70
8313;DHT22;4194;43.408;24.626;2023-12-04T09:09:06;2.50;87.50
8313;DHT22;4194;43.408;24.626;2023-12-04T09:11:33;2.40;86.10
8313;DHT22;4194;43.408;24.626;2023-12-04T09:13:58;2.50;86.00
8313;DHT22;4194;43.408;24.626;2023-12-04T09:16:24;2.60;86.00
8313;DHT22;4194;43.408;24.626;2023-12-04T09:18:50;2.20;85.50
8313;DHT22;4194;43.408;24.626;2023-12-04T09:21:15;2.20;86.40
8313;DHT22;4194;43.408;24.626;2023-12-04T09:23:42;2.20;86.20
8313;DHT22;4194;43.408;24.626;2023-12-04T09:26:07;2.30;86.30
8313;DHT22;4194;43.408;24.626;2023-12-04T09:28:35;2.30;85.20
8313;DHT22;4194;43.408;24.626;2023-12-04T09:31:02;2.30;84.60
8313;DHT22;4194;43.408;24.626;2023-12-04T09:33:28;2.40;84.40
8313;DHT22;4194;43.408;24.626;2023-12-04T09:35:53;2.10;84.20
8313;DHT22;4194;43.408;24.626;2023-12-04T09:38:19;2.40;85.40
8313;DHT22;4194;43.408;24.626;2023-12-04T09:40:45;2.50;85.80
8313;DHT22;4194;43.408;24.626;2023-12-04T09:43:10;2.50;85.90
8313;DHT22;4194;43.408;24.626;2023-12-04T09:45:38;2.50;84.90
8313;DHT22;4194;43.408;24.626;2023-12-04T09:48:08;2.50;87.10
8313;DHT22;4194;43.408;24.626;2023-12-04T09:50:35;2.10;85.70
8313;DHT22;4194;43.408;24.626;2023-12-04T09:53:02;2.20;85.60
8313;DHT22;4194;43.408;24.626;2023-12-04T09:55:28;2.70;86.60
8313;DHT22;4194;43.408;24.626;2023-12-04T09:57:55;3.70;87.60
8313;DHT22;4194;43.408;24.626;2023-12-04T10:00:22;2.90;86.40
8313;DHT22;4194;43.408;24.626;2023-12-04T10:02:48;2.90;85.70
8313;DHT22;4194;43.408;24.626;2023-12-04T10:05:15;3.10;85.90
8313;DHT22;4194;43.408;24.626;2023-12-04T10:07:41;3.20;85.60
8313;DHT22;4194;43.408;24.626;2023-12-04T10:10:07;3.70;86.50
8313;DHT22;4194;43.408;24.626;2023-12-04T10:12:35;4.10;85.00
8313;DHT22;4194;43.408;24.626;2023-12-04T10:15:07;3.90;84.30
8313;DHT22;4194;43.408;24.626;2023-12-04T10:17:38;3.70;83.80
8313;DHT22;4194;43.408;24.626;2023-12-04T10:22:40;4.20;82.90
8313;DHT22;4194;43.408;24.626;2023-12-04T10:25:17;4.60;82.10
8313;DHT22;4194;43.408;24.626;2023-12-04T10:27:44;3.90;81.20
8313;DHT22;4194;43.408;24.626;2023-12-04T10:30:10;3.70;80.70
8313;DHT22;4194;43.408;24.626;2023-12-04T10:32:47;4.60;80.20
8313;DHT22;4194;43.408;24.626;2023-12-04T10:35:12;4.50;80.50
8313;DHT22;4194;43.408;24.626;2023-12-04T10:37:39;4.30;80.20
8313;DHT22;4194;43.408;24.626;2023-12-04T10:40:06;4.50;79.40
8313;DHT22;4194;43.408;24.626;2023-12-04T10:42:35;4.60;78.70
8313;DHT22;4194;43.408;24.626;2023-12-04T10:45:01;4.40;79.80
8313;DHT22;4194;43.408;24.626;2023-12-04T10:47:29;3.90;80.10
8313;DHT22;4194;43.408;24.626;2023-12-04T10:49:56;4.80;78.80
8313;DHT22;4194;43.408;24.626;2023-12-04T10:52:22;4.90;78.40
8313;DHT22;4194;43.408;24.626;2023-12-04T10:54:48;4.90;79.30
8313;DHT22;4194;43.408;24.626;2023-12-04T10:57:31;5.00;80.20
8313;DHT22;4194;43.408;24.626;2023-12-04T11:00:03;5.20;80.70
8313;DHT22;4194;43.408;24.626;2023-12-04T11:02:29;5.20;79.90
8313;DHT22;4194;43.408;24.626;2023-12-04T11:05:16;5.40;79.40
8313;DHT22;4194;43.408;24.626;2023-12-04T11:08:08;5.20;77.20
8313;DHT22;4194;43.408;24.626;2023-12-04T11:10:50;5.20;76.50
8313;DHT22;4194;43.408;24.626;2023-12-04T11:13:35;5.40;76.40
8313;DHT22;4194;43.408;24.626;2023-12-04T11:16:09;4.70;76.90
8313;DHT22;4194;43.408;24.626;2023-12-04T11:18:38;5.20;76.50
8313;DHT22;4194;43.408;24.626;2023-12-04T11:21:09;5.50;78.40
8313;DHT22;4194;43.408;24.626;2023-12-04T11:23:35;5.10;77.00
8313;DHT22;4194;43.408;24.626;2023-12-04T11:26:02;5.80;76.90
8313;DHT22;4194;43.408;24.626;2023-12-04T11:28:30;5.50;76.30
8313;DHT22;4194;43.408;24.626;2023-12-04T11:30:57;5.40;76.70
8313;DHT22;4194;43.408;24.626;2023-12-04T11:33:24;5.30;77.10
8313;DHT22;4194;43.408;24.626;2023-12-04T11:35:50;5.30;77.30
8313;DHT22;4194;43.408;24.626;2023-12-04T11:38:19;5.50;77.70
8313;DHT22;4194;43.408;24.626;2023-12-04T11:40:46;5.50;76.50
8313;DHT22;4194;43.408;24.626;2023-12-04T11:43:38;5.60;76.00
8313;DHT22;4194;43.408;24.626;2023-12-04T11:46:08;5.60;75.10
8313;DHT22;4194;43.408;24.626;2023-12-04T11:48:39;5.40;75.50
8313;DHT22;4194;43.408;24.626;2023-12-04T11:51:08;5.60;75.50
8313;DHT22;4194;43.408;24.626;2023-12-04T11:53:40;5.60;77.10
8313;DHT22;4194;43.408;24.626;2023-12-04T11:56:10;5.80;76.80
8313;DHT22;4194;43.408;24.626;2023-12-04T11:58:43;7.00;79.30
8313;DHT22;4194;43.408;24.626;2023-12-04T12:01:09;5.60;77.70
8313;DHT22;4194;43.408;24.626;2023-12-04T12:03:35;6.40;76.00
8313;DHT22;4194;43.408;24.626;2023-12-04T12:06:00;6.60;72.30
8313;DHT22;4194;43.408;24.626;2023-12-04T12:08:28;7.70;72.00
8313;DHT22;4194;43.408;24.626;2023-12-04T12:10:54;7.40;72.30
8313;DHT22;4194;43.408;24.626;2023-12-04T12:13:21;8.50;71.00
8313;DHT22;4194;43.408;24.626;2023-12-04T12:15:47;8.30;66.70
8313;DHT22;4194;43.408;24.626;2023-12-04T12:18:16;8.90;65.80
8313;DHT22;4194;43.408;24.626;2023-12-04T12:20:41;9.80;64.20
8313;DHT22;4194;43.408;24.626;2023-12-04T12:23:07;12.40;58.30
8313;DHT22;4194;43.408;24.626;2023-12-04T12:25:35;15.40;51.90
8313;DHT22;4194;43.408;24.626;2023-12-04T12:28:04;16.30;45.50
8313;DHT22;4194;43.408;24.626;2023-12-04T12:30:30;13.90;46.90
8313;DHT22;4194;43.408;24.626;2023-12-04T12:32:56;12.30;50.50
8313;DHT22;4194;43.408;24.626;2023-12-04T12:35:23;11.50;53.50
8313;DHT22;4194;43.408;24.626;2023-12-04T12:37:49;8.80;57.20
8313;DHT22;4194;43.408;24.626;2023-12-04T12:40:22;6.90;60.00
8313;DHT22;4194;43.408;24.626;2023-12-04T12:42:48;5.50;62.70
8313;DHT22;4194;43.408;24.626;2023-12-04T12:45:14;6.00;66.60
8313;DHT22;4194;43.408;24.626;2023-12-04T12:47:42;5.00;67.30
8313;DHT22;4194;43.408;24.626;2023-12-04T12:50:11;4.00;68.10
8313;DHT22;4194;43.408;24.626;2023-12-04T12:52:39;4.90;70.80
8313;DHT22;4194;43.408;24.626;2023-12-04T12:55:05;5.20;71.20
8313;DHT22;4194;43.408;24.626;2023-12-04T12:57:30;4.00;71.30
8313;DHT22;4194;43.408;24.626;2023-12-04T12:59:57;4.30;72.20
8313;DHT22;4194;43.408;24.626;2023-12-04T13:02:22;5.00;74.20
8313;DHT22;4194;43.408;24.626;2023-12-04T13:04:48;3.40;74.90
8313;DHT22;4194;43.408;24.626;2023-12-04T13:07:16;4.30;76.50
8313;DHT22;4194;43.408;24.626;2023-12-04T13:09:42;3.50;75.60
8313;DHT22;4194;43.408;24.626;2023-12-04T13:12:09;3.20;76.20
8313;DHT22;4194;43.408;24.626;2023-12-04T13:14:36;4.10;77.90
8313;DHT22;4194;43.408;24.626;2023-12-04T13:17:03;3.80;79.80
8313;DHT22;4194;43.408;24.626;2023-12-04T13:19:29;4.00;80.50
8313;DHT22;4194;43.408;24.626;2023-12-04T13:21:57;4.30;81.00
8313;DHT22;4194;43.408;24.626;2023-12-04T13:24:22;3.50;79.80
8313;DHT22;4194;43.408;24.626;2023-12-04T13:26:48;4.30;80.80
8313;DHT22;4194;43.408;24.626;2023-12-04T13:29:14;4.30;81.60
8313;DHT22;4194;43.408;24.626;2023-12-04T13:31:42;3.60;80.80
8313;DHT22;4194;43.408;24.626;2023-12-04T13:34:08;3.70;80.70
8313;DHT22;4194;43.408;24.626;2023-12-04T13:36:34;4.20;81.90
8313;DHT22;4194;43.408;24.626;2023-12-04T13:39:01;4.10;82.30
8313;DHT22;4194;43.408;24.626;2023-12-04T13:41:30;2.80;81.50
8313;DHT22;4194;43.408;24.626;2023-12-04T13:44:14;3.90;83.50
8313;DHT22;4194;43.408;24.626;2023-12-04T13:46:41;4.10;85.00
8313;DHT22;4194;43.408;24.626;2023-12-04T13:49:06;3.90;86.10
8313;DHT22;4194;43.408;24.626;2023-12-04T13:51:32;4.30;87.20
8313;DHT22;4194;43.408;24.626;2023-12-04T13:53:59;3.90;87.20
8313;DHT22;4194;43.408;24.626;2023-12-04T13:56:35;4.00;87.30
8313;DHT22;4194;43.408;24.626;2023-12-04T13:59:10;3.20;87.00
8313;DHT22;4194;43.408;24.626;2023-12-04T14:01:44;3.20;88.10
8313;DHT22;4194;43.408;24.626;2023-12-04T14:04:10;3.10;88.90
8313;DHT22;4194;43.408;24.626;2023-12-04T14:06:35;3.10;89.60
8313;DHT22;4194;43.408;24.626;2023-12-04T14:09:01;3.10;90.00
8313;DHT22;4194;43.408;24.626;2023-12-04T14:11:27;2.30;89.70
8313;DHT22;4194;43.408;24.626;2023-12-04T14:13:53;3.00;90.40
8313;DHT22;4194;43.408;24.626;2023-12-04T14:16:19;3.10;90.70
8313;DHT22;4194;43.408;24.626;2023-12-04T14:18:44;3.00;90.50
8313;DHT22;4194;43.408;24.626;2023-12-04T14:21:11;2.50;90.70
8313;DHT22;4194;43.408;24.626;2023-12-04T14:23:36;3.50;91.40
8313;DHT22;4194;43.408;24.626;2023-12-04T14:26:03;3.70;91.70
8313;DHT22;4194;43.408;24.626;2023-12-04T14:28:28;3.40;91.90
8313;DHT22;4194;43.408;24.626;2023-12-04T14:30:55;3.50;91.90
8313;DHT22;4194;43.408;24.626;2023-12-04T14:33:21;2.80;91.80
8313;DHT22;4194;43.408;24.626;2023-12-04T14:35:47;2.80;92.00
8313;DHT22;4194;43.408;24.626;2023-12-04T14:38:13;2.70;92.30
8313;DHT22;4194;43.408;24.626;2023-12-04T14:40:40;2.60;92.40
8313;DHT22;4194;43.408;24.626;2023-12-04T14:43:06;2.50;92.50
8313;DHT22;4194;43.408;24.626;2023-12-04T14:45:38;2.50;93.00
8313;DHT22;4194;43.408;24.626;2023-12-04T14:48:04;3.90;94.00
8313;DHT22;4194;43.408;24.626;2023-12-04T14:50:33;2.60;93.90
8313;DHT22;4194;43.408;24.626;2023-12-04T14:52:58;2.40;94.60
8313;DHT22;4194;43.408;24.626;2023-12-04T14:55:37;2.30;95.10
8313;DHT22;4194;43.408;24.626;2023-12-04T14:58:25;2.30;95.80
8313;DHT22;4194;43.408;24.626;2023-12-04T15:01:12;2.60;96.90
8313;DHT22;4194;43.408;24.626;2023-12-04T15:03:38;2.30;97.20
8313;DHT22;4194;43.408;24.626;2023-12-04T15:06:22;2.10;97.70
8313;DHT22;4194;43.408;24.626;2023-12-04T15:09:11;1.90;98.40
8313;DHT22;4194;43.408;24.626;2023-12-04T15:11:55;2.30;99.20
8313;DHT22;4194;43.408;24.626;2023-12-04T15:14:39;2.00;99.90
8313;DHT22;4194;43.408;24.626;2023-12-04T15:17:35;1.80;99.90
8313;DHT22;4194;43.408;24.626;2023-12-04T15:20:14;2.30;99.90
8313;DHT22;4194;43.408;24.626;2023-12-04T15:22:57;2.00;99.90
8313;DHT22;4194;43.408;24.626;2023-12-04T15:25:23;2.30;99.90
8313;DHT22;4194;43.408;24.626;2023-12-04T15:27:49;1.50;99.90
8313;DHT22;4194;43.408;24.626;2023-12-04T15:30:16;1.40;99.90
8313;DHT22;4194;43.408;24.626;2023-12-04T15:32:42;1.30;99.90
8313;DHT22;4194;43.408;24.626;2023-12-04T15:35:08;1.10;99.90
8313;DHT22;4194;43.408;24.626;2023-12-04T15:37:35;1.40;99.90
8313;DHT22;4194;43.408;24.626;2023-12-04T15:40:01;1.10;99.90
8313;DHT22;4194;43.408;24.626;2023-12-04T15:42:26;1.40;99.90
8313;DHT22;4194;43.408;24.626;2023-12-04T15:44:54;1.50;99.90
8313;DHT22;4194;43.408;24.626;2023-12-04T15:47:19;1.00;99.90
8313;DHT22;4194;43.408;24.626;2023-12-04T15:49:49;1.30;99.90
8313;DHT22;4194;43.408;24.626;2023-12-04T15:52:15;1.00;99.90
8313;DHT22;4194;43.408;24.626;2023-12-04T15:54:47;1.20;99.90
8313;DHT22;4194;43.408;24.626;2023-12-04T15:57:14;1.20;99.90
8313;DHT22;4194;43.408;24.626;2023-12-04T15:59:41;1.20;99.90
8313;DHT22;4194;43.408;24.626;2023-12-04T16:02:07;-0.20;99.90